createdAt,value
2023-03-27T00:15:10.730Z,0
2023-03-27T00:30:31.000Z,0
2023-03-27T00:45:52.658Z,0
2023-03-27T01:01:13.000Z,0
2023-03-27T01:16:34.000Z,0
2023-03-27T01:31:55.561Z,0
2023-03-27T01:47:16.000Z,0
2023-03-27T02:02:36.000Z,0
2023-03-27T02:17:57.491Z,0
2023-03-27T02:33:18.462Z,0
2023-03-27T02:48:39.000Z,0
2023-03-27T03:04:00.391Z,0
2023-03-27T03:19:21.000Z,0
2023-03-27T03:34:42.337Z,0
2023-03-27T03:50:03.290Z,0
2023-03-27T04:05:24.259Z,0
2023-03-27T04:20:45.232Z,0
2023-03-27T04:36:06.146Z,0
2023-03-27T04:51:27.086Z,0
2023-03-27T05:06:48.019Z,11
2023-03-27T05:22:07.942Z,28
2023-03-27T05:37:28.873Z,33
2023-03-27T05:52:49.000Z,45
2023-03-27T06:08:10.726Z,67
2023-03-27T06:23:31.659Z,382
2023-03-27T06:38:52.587Z,2221
2023-03-27T06:54:13.526Z,624
2023-03-27T07:09:34.442Z,2587
2023-03-27T07:24:55.379Z,2840
2023-03-27T07:26:16.454Z,618
2023-03-27T07:27:37.540Z,2576
2023-03-27T07:28:58.619Z,2863
2023-03-27T07:30:19.690Z,3015
2023-03-27T07:31:39.778Z,2868
2023-03-27T07:33:00.873Z,2649
2023-03-27T07:34:21.937Z,2823
2023-03-27T07:35:43.010Z,523
2023-03-27T07:37:04.000Z,2795
2023-03-27T07:38:25.175Z,3026
2023-03-27T07:39:45.272Z,2947
2023-03-27T07:41:06.350Z,3043
2023-03-27T07:42:27.410Z,1164
2023-03-27T07:43:48.500Z,2958
2023-03-27T07:45:09.570Z,2863
2023-03-27T07:46:30.000Z,2778
2023-03-27T07:47:51.724Z,2941
2023-03-27T07:49:12.000Z,3380
2023-03-27T07:50:33.871Z,3020
2023-03-27T07:51:54.950Z,2514
2023-03-27T07:54:37.000Z,2311
2023-03-27T07:55:58.167Z,2891
2023-03-27T07:57:18.265Z,2857
2023-03-27T07:58:39.346Z,2851
2023-03-27T08:00:00.000Z,2970
2023-03-27T08:01:21.513Z,2953
2023-03-27T08:02:42.000Z,2986
2023-03-27T08:04:03.642Z,2913
2023-03-27T08:05:24.722Z,3020
2023-03-27T08:06:45.806Z,2975
2023-03-27T08:08:06.878Z,2936
2023-03-27T08:09:27.959Z,2908
2023-03-27T08:10:49.035Z,3121
2023-03-27T08:12:10.124Z,3054
2023-03-27T08:13:31.185Z,2840
2023-03-27T08:14:51.276Z,2739
2023-03-27T08:16:12.000Z,2683
2023-03-27T08:17:33.429Z,2880
2023-03-27T08:18:54.000Z,2092
2023-03-27T08:20:15.582Z,551
2023-03-27T08:21:36.672Z,489
2023-03-27T08:22:57.738Z,478
2023-03-27T08:24:18.803Z,483
2023-03-27T08:25:39.865Z,506
2023-03-27T08:27:00.940Z,410
2023-03-27T08:28:22.017Z,483
2023-03-27T08:29:43.083Z,506
2023-03-27T08:31:04.152Z,579
2023-03-27T08:32:24.242Z,523
2023-03-27T08:33:45.309Z,523
2023-03-27T08:35:06.000Z,416
2023-03-27T08:36:27.444Z,388
2023-03-27T08:37:48.000Z,489
2023-03-27T08:39:09.567Z,343
2023-03-27T08:40:30.000Z,376
2023-03-27T08:41:51.717Z,388
2023-03-27T08:43:12.000Z,489
2023-03-27T08:44:33.845Z,466
2023-03-27T08:45:54.909Z,444
2023-03-27T08:47:15.988Z,326
2023-03-27T08:48:37.055Z,405
2023-03-27T08:49:57.124Z,315
2023-03-27T08:51:18.000Z,371
2023-03-27T08:52:39.258Z,281
2023-03-27T08:54:00.333Z,371
2023-03-27T08:55:21.388Z,286
2023-03-27T08:56:42.465Z,405
2023-03-27T08:58:03.538Z,354
2023-03-27T08:59:24.591Z,382
2023-03-27T09:00:45.661Z,506
2023-03-27T09:02:06.722Z,360
2023-03-27T09:03:27.803Z,348
2023-03-27T09:04:48.857Z,354
2023-03-27T09:06:09.934Z,388
2023-03-27T09:07:30.017Z,264
2023-03-27T09:08:51.079Z,320
2023-03-27T09:10:12.137Z,466
2023-03-27T09:11:33.210Z,517
2023-03-27T09:12:54.279Z,388
2023-03-27T09:14:15.347Z,382
2023-03-27T09:15:36.410Z,478
2023-03-27T09:16:57.473Z,315
2023-03-27T09:18:18.000Z,253
2023-03-27T09:19:39.610Z,270
2023-03-27T09:21:00.000Z,292
2023-03-27T09:22:21.740Z,371
2023-03-27T09:23:42.000Z,388
2023-03-27T09:25:02.905Z,421
2023-03-27T09:26:23.965Z,455
2023-03-27T09:27:45.014Z,495
2023-03-27T09:29:06.081Z,354
2023-03-27T09:30:27.146Z,320
2023-03-27T09:31:48.226Z,281
2023-03-27T09:33:09.292Z,253
2023-03-27T09:34:30.000Z,247
2023-03-27T09:35:51.438Z,253
2023-03-27T09:37:12.487Z,264
2023-03-27T09:38:33.562Z,416
2023-03-27T09:39:54.620Z,348
2023-03-27T09:41:15.697Z,354
2023-03-27T09:42:35.786Z,455
2023-03-27T09:43:56.837Z,326
2023-03-27T09:45:17.914Z,365
2023-03-27T09:46:38.968Z,427
2023-03-27T09:48:00.035Z,433
2023-03-27T09:49:21.000Z,343
2023-03-27T09:50:42.180Z,320
2023-03-27T09:52:03.231Z,292
2023-03-27T09:53:24.000Z,281
2023-03-27T09:54:45.363Z,382
2023-03-27T09:56:06.442Z,393
2023-03-27T09:57:27.502Z,388
2023-03-27T09:58:48.000Z,393
2023-03-27T10:00:08.636Z,427
2023-03-27T10:01:29.721Z,348
2023-03-27T10:02:50.779Z,444
2023-03-27T10:04:11.000Z,360
2023-03-27T10:05:32.916Z,309
2023-03-27T10:06:54.000Z,393
2023-03-27T10:08:15.046Z,388
2023-03-27T10:09:36.000Z,365
2023-03-27T10:10:57.196Z,348
2023-03-27T10:12:18.243Z,365
2023-03-27T10:13:39.310Z,393
2023-03-27T10:15:00.382Z,472
2023-03-27T10:16:21.461Z,455
2023-03-27T10:17:41.549Z,354
2023-03-27T10:19:02.608Z,343
2023-03-27T10:20:23.678Z,388
2023-03-27T10:21:44.754Z,253
2023-03-27T10:23:05.814Z,219
2023-03-27T10:24:26.886Z,208
2023-03-27T10:25:47.943Z,191
2023-03-27T10:27:09.006Z,174
2023-03-27T10:28:30.077Z,202
2023-03-27T10:29:51.142Z,213
2023-03-27T10:31:12.207Z,219
2023-03-27T10:32:33.274Z,225
2023-03-27T10:33:54.340Z,286
2023-03-27T10:35:14.430Z,331
2023-03-27T10:36:35.493Z,337
2023-03-27T10:37:56.552Z,337
2023-03-27T10:39:17.000Z,343
2023-03-27T10:40:38.700Z,337
2023-03-27T10:41:59.000Z,337
2023-03-27T10:43:20.834Z,337
2023-03-27T10:44:41.894Z,337
2023-03-27T10:46:02.952Z,343
2023-03-27T10:47:24.034Z,354
2023-03-27T10:48:45.099Z,354
2023-03-27T10:50:06.168Z,303
2023-03-27T10:51:27.227Z,281
2023-03-27T10:52:47.326Z,275
2023-03-27T10:54:08.000Z,247
2023-03-27T10:55:29.439Z,230
2023-03-27T10:56:50.508Z,191
2023-03-27T10:58:11.587Z,191
2023-03-27T10:59:32.649Z,213
2023-03-27T11:00:53.710Z,225
2023-03-27T11:02:14.776Z,270
2023-03-27T11:03:35.837Z,303
2023-03-27T11:04:56.891Z,348
2023-03-27T11:06:17.970Z,354
2023-03-27T11:07:39.000Z,354
2023-03-27T11:09:00.104Z,360
2023-03-27T11:10:21.299Z,348
2023-03-27T11:11:42.370Z,360
2023-03-27T11:13:03.435Z,354
2023-03-27T11:14:24.484Z,343
2023-03-27T11:15:45.000Z,331
2023-03-27T11:17:06.638Z,320
2023-03-27T11:18:27.707Z,348
2023-03-27T11:19:48.755Z,354
2023-03-27T11:21:09.819Z,348
2023-03-27T11:22:30.904Z,382
2023-03-27T11:23:51.969Z,393
2023-03-27T11:25:13.034Z,410
2023-03-27T11:26:34.100Z,421
2023-03-27T11:27:54.187Z,433
2023-03-27T11:29:15.000Z,461
2023-03-27T11:30:36.309Z,483
2023-03-27T11:31:57.387Z,500
2023-03-27T11:33:18.000Z,461
2023-03-27T11:34:39.530Z,376
2023-03-27T11:36:00.604Z,337
2023-03-27T11:37:21.673Z,326
2023-03-27T11:38:42.721Z,427
2023-03-27T11:40:03.794Z,427
2023-03-27T11:41:24.871Z,416
2023-03-27T11:42:45.951Z,405
2023-03-27T11:44:07.005Z,393
2023-03-27T11:45:27.094Z,405
2023-03-27T11:46:48.157Z,438
2023-03-27T11:48:09.208Z,461
2023-03-27T11:49:30.296Z,461
2023-03-27T11:52:12.414Z,444
2023-03-27T11:53:33.493Z,427
2023-03-27T11:54:54.552Z,421
2023-03-27T11:56:15.637Z,410
2023-03-27T11:57:36.705Z,371
2023-03-27T11:58:57.779Z,388
2023-03-27T12:00:18.853Z,388
2023-03-27T12:01:39.907Z,489
2023-03-27T12:03:01.000Z,450
2023-03-27T12:04:22.000Z,438
2023-03-27T12:05:43.233Z,421
2023-03-27T12:07:04.302Z,405
2023-03-27T12:08:25.000Z,281
2023-03-27T12:09:46.431Z,393
2023-03-27T12:11:06.520Z,376
2023-03-27T12:12:27.582Z,360
2023-03-27T12:13:48.657Z,219
2023-03-27T12:15:09.729Z,219
2023-03-27T12:16:30.790Z,264
2023-03-27T12:17:51.860Z,416
2023-03-27T12:19:12.000Z,309
2023-03-27T12:20:34.004Z,309
2023-03-27T12:21:55.058Z,303
2023-03-27T12:23:16.129Z,292
2023-03-27T12:24:37.000Z,326
2023-03-27T12:25:58.260Z,399
2023-03-27T12:27:19.319Z,286
2023-03-27T12:28:39.407Z,270
2023-03-27T12:30:00.000Z,241
2023-03-27T12:31:21.538Z,360
2023-03-27T12:32:42.607Z,247
2023-03-27T12:34:03.684Z,241
2023-03-27T12:35:24.749Z,225
2023-03-27T12:36:45.797Z,219
2023-03-27T12:38:06.000Z,213
2023-03-27T12:39:27.951Z,343
2023-03-27T12:40:49.017Z,360
2023-03-27T12:42:10.087Z,236
2023-03-27T12:43:31.000Z,247
2023-03-27T12:44:52.219Z,360
2023-03-27T12:46:12.000Z,281
2023-03-27T12:47:33.345Z,360
2023-03-27T12:48:54.425Z,376
2023-03-27T12:50:15.506Z,376
2023-03-27T12:51:36.570Z,365
2023-03-27T12:52:57.624Z,388
2023-03-27T12:54:18.000Z,388
2023-03-27T12:55:39.759Z,388
2023-03-27T12:57:00.000Z,247
2023-03-27T12:58:21.910Z,270
2023-03-27T12:59:42.000Z,258
2023-03-27T13:01:04.024Z,275
2023-03-27T13:02:25.000Z,354
2023-03-27T13:05:06.249Z,343
2023-03-27T13:06:27.309Z,337
2023-03-27T13:07:48.380Z,337
2023-03-27T13:09:09.458Z,337
2023-03-27T13:10:30.000Z,315
2023-03-27T13:11:51.572Z,343
2023-03-27T13:13:12.638Z,343
2023-03-27T13:14:33.713Z,343
2023-03-27T13:15:54.000Z,315
2023-03-27T13:17:15.869Z,236
2023-03-27T13:18:36.924Z,241
2023-03-27T13:19:58.003Z,236
2023-03-27T13:21:18.069Z,225
2023-03-27T13:22:39.137Z,185
2023-03-27T13:24:00.203Z,146
2023-03-27T13:25:21.271Z,146
2023-03-27T13:26:42.333Z,112
2023-03-27T13:28:03.425Z,84
2023-03-27T13:29:24.000Z,84
2023-03-27T13:30:45.542Z,95
2023-03-27T13:32:06.000Z,78
2023-03-27T13:33:27.681Z,56
2023-03-27T13:34:48.000Z,45
2023-03-27T13:36:09.817Z,28
2023-03-27T13:37:30.000Z,28
2023-03-27T13:38:50.945Z,28
2023-03-27T13:40:12.032Z,39
2023-03-27T13:41:33.093Z,67
2023-03-27T13:42:54.166Z,118
2023-03-27T13:44:15.240Z,185
2023-03-27T13:45:36.000Z,241
2023-03-27T13:46:57.356Z,281
2023-03-27T13:48:18.425Z,298
2023-03-27T13:49:39.493Z,286
2023-03-27T13:51:00.556Z,309
2023-03-27T13:52:21.625Z,303
2023-03-27T13:53:42.682Z,315
2023-03-27T13:55:03.773Z,326
2023-03-27T13:56:23.855Z,298
2023-03-27T13:57:44.913Z,315
2023-03-27T13:59:05.966Z,298
2023-03-27T14:00:27.039Z,292
2023-03-27T14:01:48.000Z,286
2023-03-27T14:03:09.197Z,270
2023-03-27T14:04:30.000Z,264
2023-03-27T14:05:51.000Z,264
2023-03-27T14:07:12.000Z,253
2023-03-27T14:08:33.452Z,253
2023-03-27T14:09:54.522Z,253
2023-03-27T14:12:36.000Z,253
2023-03-27T14:13:56.731Z,247
2023-03-27T14:15:17.815Z,247
2023-03-27T14:16:38.868Z,247
2023-03-27T14:17:59.000Z,236
2023-03-27T14:19:21.016Z,236
2023-03-27T14:20:42.081Z,163
2023-03-27T14:22:03.000Z,163
2023-03-27T14:23:24.202Z,219
2023-03-27T14:24:45.281Z,202
2023-03-27T14:26:06.328Z,230
2023-03-27T14:27:27.414Z,241
2023-03-27T14:28:48.463Z,236
2023-03-27T14:30:09.547Z,236
2023-03-27T14:31:29.634Z,241
2023-03-27T14:32:50.688Z,247
2023-03-27T14:34:11.742Z,140
2023-03-27T14:35:32.836Z,151
2023-03-27T14:36:53.903Z,236
2023-03-27T14:38:14.966Z,219
2023-03-27T14:39:36.030Z,230
2023-03-27T14:40:57.114Z,151
2023-03-27T14:42:18.000Z,151
2023-03-27T14:43:39.248Z,208
2023-03-27T14:45:00.000Z,219
2023-03-27T14:46:21.369Z,213
2023-03-27T14:47:42.446Z,213
2023-03-27T14:49:02.521Z,219
2023-03-27T14:50:23.581Z,208
2023-03-27T14:51:44.671Z,180
2023-03-27T14:53:05.727Z,168
2023-03-27T14:54:26.796Z,157
2023-03-27T14:55:47.873Z,163
2023-03-27T14:57:08.944Z,168
2023-03-27T14:58:29.984Z,157
2023-03-27T14:59:51.066Z,151
2023-03-27T15:01:12.129Z,151
2023-03-27T15:02:33.211Z,146
2023-03-27T15:03:54.268Z,140
2023-03-27T15:05:15.347Z,140
2023-03-27T15:06:35.434Z,140
2023-03-27T15:07:56.498Z,140
2023-03-27T15:09:17.574Z,140
2023-03-27T15:10:38.642Z,146
2023-03-27T15:11:59.696Z,157
2023-03-27T15:13:20.759Z,163
2023-03-27T15:14:41.829Z,180
2023-03-27T15:16:02.889Z,213
2023-03-27T15:17:23.983Z,208
2023-03-27T15:18:45.024Z,213
2023-03-27T15:20:06.119Z,213
2023-03-27T15:21:27.160Z,208
2023-03-27T15:22:48.000Z,202
2023-03-27T15:24:08.325Z,196
2023-03-27T15:25:29.388Z,191
2023-03-27T15:26:50.000Z,191
2023-03-27T15:28:11.534Z,191
2023-03-27T15:29:32.582Z,174
2023-03-27T15:30:53.910Z,185
2023-03-27T15:32:14.730Z,180
2023-03-27T15:33:36.049Z,180
2023-03-27T15:34:56.861Z,174
2023-03-27T15:36:17.932Z,174
2023-03-27T15:37:39.000Z,174
2023-03-27T15:39:00.072Z,168
2023-03-27T15:40:21.135Z,168
2023-03-27T15:41:41.000Z,168
2023-03-27T15:43:02.286Z,168
2023-03-27T15:44:23.344Z,163
2023-03-27T15:45:44.409Z,180
2023-03-27T15:47:05.476Z,123
2023-03-27T15:48:26.560Z,123
2023-03-27T15:49:47.624Z,140
2023-03-27T15:51:08.692Z,174
2023-03-27T15:52:29.742Z,168
2023-03-27T15:53:50.804Z,168
2023-03-27T15:55:11.880Z,135
2023-03-27T15:56:32.961Z,168
2023-03-27T15:57:54.263Z,168
2023-03-27T15:59:15.184Z,151
2023-03-27T16:00:36.280Z,157
2023-03-27T16:01:57.317Z,157
2023-03-27T16:03:18.400Z,140
2023-03-27T16:04:39.471Z,118
2023-03-27T16:06:00.529Z,101
2023-03-27T16:07:21.612Z,90
2023-03-27T16:08:42.650Z,84
2023-03-27T16:10:03.732Z,78
2023-03-27T16:11:24.806Z,73
2023-03-27T16:12:45.879Z,56
2023-03-27T16:14:06.947Z,39
2023-03-27T16:15:27.984Z,39
2023-03-27T16:16:48.089Z,50
2023-03-27T16:18:09.144Z,56
2023-03-27T16:19:30.217Z,61
2023-03-27T16:20:51.285Z,78
2023-03-27T16:22:12.355Z,78
2023-03-27T16:23:33.418Z,84
2023-03-27T16:24:54.000Z,90
2023-03-27T16:26:15.548Z,95
2023-03-27T16:27:36.633Z,95
2023-03-27T16:28:57.685Z,95
2023-03-27T16:30:18.755Z,95
2023-03-27T16:31:39.833Z,101
2023-03-27T16:33:00.901Z,101
2023-03-27T16:34:20.974Z,101
2023-03-27T16:35:42.000Z,106
2023-03-27T16:37:03.098Z,106
2023-03-27T16:38:24.420Z,101
2023-03-27T16:39:45.232Z,90
2023-03-27T16:41:06.292Z,95
2023-03-27T16:43:47.454Z,67
2023-03-27T16:45:07.553Z,95
2023-03-27T16:46:28.000Z,101
2023-03-27T16:47:49.675Z,101
2023-03-27T16:49:10.753Z,95
2023-03-27T16:50:31.829Z,95
2023-03-27T16:51:52.892Z,90
2023-03-27T16:53:13.946Z,90
2023-03-27T16:54:35.029Z,84
2023-03-27T16:55:56.067Z,67
2023-03-27T16:57:17.157Z,56
2023-03-27T16:58:38.200Z,50
2023-03-27T16:59:59.288Z,50
2023-03-27T17:01:20.357Z,45
2023-03-27T17:02:40.000Z,45
2023-03-27T17:04:01.496Z,39
2023-03-27T17:05:22.573Z,39
2023-03-27T17:06:43.628Z,33
2023-03-27T17:08:04.708Z,33
2023-03-27T17:09:25.760Z,33
2023-03-27T17:10:46.000Z,28
2023-03-27T17:12:07.911Z,28
2023-03-27T17:13:28.978Z,28
2023-03-27T17:14:50.032Z,22
2023-03-27T17:16:11.085Z,22
2023-03-27T17:17:32.172Z,22
2023-03-27T17:18:53.249Z,16
2023-03-27T17:20:13.308Z,16
2023-03-27T17:21:34.376Z,16
2023-03-27T17:22:55.439Z,16
2023-03-27T17:24:16.511Z,11
2023-03-27T17:25:37.577Z,11
2023-03-27T17:26:58.000Z,11
2023-03-27T17:28:19.709Z,11
2023-03-27T17:29:40.797Z,5
2023-03-27T17:31:01.858Z,5
2023-03-27T17:32:22.931Z,5
2023-03-27T17:33:43.991Z,5
2023-03-27T17:35:05.067Z,5
2023-03-27T17:36:26.117Z,0
2023-03-27T17:37:46.000Z,0
2023-03-27T17:39:07.280Z,0
2023-03-27T17:40:28.000Z,0
2023-03-27T17:41:49.398Z,0
2023-03-27T17:43:10.465Z,0
2023-03-27T17:44:31.536Z,0
2023-03-27T17:45:52.857Z,0
2023-03-27T17:47:13.681Z,0
2023-03-27T17:48:34.000Z,0
2023-03-27T17:49:55.815Z,0
2023-03-27T17:51:16.862Z,0
2023-03-27T17:52:37.953Z,0
2023-03-27T17:53:58.991Z,0
2023-03-27T17:55:19.092Z,0
2023-03-27T17:56:40.152Z,0
2023-03-27T17:58:01.469Z,0
2023-03-27T17:59:22.538Z,0
2023-03-27T18:00:43.400Z,0
2023-03-27T18:02:04.463Z,0
2023-03-27T18:03:25.575Z,0
2023-03-27T18:04:46.683Z,0
2023-03-27T18:06:07.766Z,0
2023-03-27T18:07:28.000Z,0
2023-03-27T18:08:49.932Z,0
2023-03-27T18:10:11.000Z,0
2023-03-27T18:11:32.153Z,0
2023-03-27T18:12:52.519Z,0
2023-03-27T18:14:13.408Z,0
2023-03-27T18:15:34.521Z,0
2023-03-27T18:16:55.626Z,0
2023-03-27T18:18:16.000Z,0
2023-03-27T18:19:37.835Z,0
2023-03-27T18:20:58.922Z,0
2023-03-27T18:22:20.055Z,0
2023-03-27T18:23:41.000Z,0
2023-03-27T18:25:02.000Z,0
2023-03-27T18:26:23.000Z,0
2023-03-27T18:27:44.492Z,0
2023-03-27T18:29:05.614Z,0
2023-03-27T18:30:25.722Z,0
2023-03-27T18:31:46.000Z,0
2023-03-27T18:33:07.000Z,0
2023-03-27T18:34:29.000Z,0
2023-03-27T18:35:50.162Z,0
2023-03-27T18:37:11.000Z,0
2023-03-27T18:38:32.397Z,0
2023-03-27T18:39:53.483Z,0
2023-03-27T18:41:14.000Z,0
2023-03-27T18:42:35.708Z,0
2023-03-27T18:43:56.815Z,0
2023-03-27T18:45:17.000Z,0
2023-03-27T18:46:39.030Z,0
2023-03-27T18:47:59.151Z,0
2023-03-27T18:49:20.289Z,0
2023-03-27T18:50:41.383Z,0
2023-03-27T18:52:02.000Z,0
2023-03-27T18:53:23.608Z,0
2023-03-27T18:54:44.724Z,0
2023-03-27T18:56:06.064Z,0
2023-03-27T18:57:26.000Z,0
2023-03-27T18:58:48.056Z,0
2023-03-27T19:00:09.000Z,0
2023-03-27T19:01:30.287Z,0
2023-03-27T19:02:51.402Z,0
2023-03-27T19:04:12.513Z,0
2023-03-27T19:05:32.000Z,0
2023-03-27T19:06:53.747Z,0
2023-03-27T19:08:14.000Z,0
2023-03-27T19:09:35.000Z,0
2023-03-27T19:10:57.074Z,0
2023-03-27T19:12:18.000Z,0
2023-03-27T19:13:39.000Z,0
2023-03-27T19:15:00.000Z,0
2023-03-27T19:16:21.501Z,0
2023-03-27T19:17:42.000Z,0
2023-03-27T19:19:03.718Z,0
2023-03-27T19:20:24.000Z,0
2023-03-27T19:21:45.000Z,0
2023-03-27T19:23:06.319Z,0
2023-03-27T19:24:27.192Z,0
2023-03-27T19:25:48.000Z,0
2023-03-27T19:27:09.402Z,0
2023-03-27T19:28:30.000Z,0
2023-03-27T19:29:51.626Z,0
2023-03-27T19:31:12.735Z,0
2023-03-27T19:32:33.831Z,0
2023-03-27T19:33:55.184Z,0
2023-03-27T19:35:16.057Z,0
2023-03-27T19:36:37.165Z,0
2023-03-27T19:37:58.266Z,0
2023-03-27T19:39:19.387Z,0
2023-03-27T19:40:39.511Z,0
2023-03-27T19:42:00.000Z,0
2023-03-27T19:43:21.729Z,0
2023-03-27T19:44:42.000Z,0
2023-03-27T19:46:03.000Z,0
2023-03-27T19:47:25.039Z,0
2023-03-27T19:48:46.000Z,0
2023-03-27T19:50:07.244Z,0
2023-03-27T19:51:28.374Z,0
2023-03-27T19:52:49.479Z,0
2023-03-27T19:54:10.000Z,0
2023-03-27T19:55:31.693Z,0
2023-03-27T19:56:52.796Z,0
2023-03-27T19:58:12.922Z,0
2023-03-27T19:59:34.035Z,0
2023-03-27T20:00:55.159Z,0
2023-03-27T20:02:16.000Z,0
2023-03-27T20:03:37.369Z,0
2023-03-27T20:04:58.000Z,0
2023-03-27T20:06:19.000Z,0
2023-03-27T20:07:40.674Z,0
2023-03-27T20:09:01.000Z,0
2023-03-27T20:10:22.910Z,0
2023-03-27T20:11:44.005Z,0
2023-03-27T20:13:05.124Z,0
2023-03-27T20:14:26.227Z,0
2023-03-27T20:15:46.368Z,0
2023-03-27T20:17:07.000Z,0
2023-03-27T20:18:28.000Z,0
2023-03-27T20:19:49.000Z,0
2023-03-27T20:21:10.785Z,0
2023-03-27T20:22:31.000Z,0
2023-03-27T20:23:53.012Z,0
2023-03-27T20:25:14.000Z,0
2023-03-27T20:26:35.000Z,0
2023-03-27T20:27:56.317Z,0
2023-03-27T20:29:17.446Z,0
2023-03-27T20:30:38.545Z,0
2023-03-27T20:31:59.667Z,0
2023-03-27T20:33:19.000Z,0
2023-03-27T20:34:40.895Z,0
2023-03-27T20:36:02.000Z,0
2023-03-27T20:37:23.125Z,0
2023-03-27T20:38:44.000Z,0
2023-03-27T20:40:05.336Z,0
2023-03-27T20:41:26.000Z,0
2023-03-27T20:42:47.547Z,0
2023-03-27T20:44:08.000Z,0
2023-03-27T20:45:29.000Z,0
2023-03-27T20:46:50.000Z,0
2023-03-27T20:48:11.983Z,0
2023-03-27T20:49:33.000Z,0
2023-03-27T20:50:53.000Z,0
2023-03-27T20:52:14.000Z,0
2023-03-27T20:53:35.000Z,0
2023-03-27T20:54:56.000Z,0
2023-03-27T20:56:17.638Z,0
2023-03-27T20:57:38.763Z,0
2023-03-27T20:58:59.867Z,0
2023-03-27T21:00:21.000Z,0
2023-03-27T21:01:42.096Z,0
2023-03-27T21:03:03.000Z,0
2023-03-27T21:04:24.313Z,0
2023-03-27T21:05:45.000Z,0
2023-03-27T21:07:06.507Z,0
2023-03-27T21:08:26.000Z,0
2023-03-27T21:09:47.753Z,0
2023-03-27T21:11:08.000Z,0
2023-03-27T21:12:29.960Z,0
2023-03-27T21:13:51.000Z,0
2023-03-27T21:15:12.185Z,0
2023-03-27T21:16:32.000Z,0
2023-03-27T21:17:53.422Z,0
2023-03-27T21:19:14.000Z,0
2023-03-27T21:20:35.631Z,0
2023-03-27T21:21:56.000Z,0
2023-03-27T21:23:17.000Z,0
2023-03-27T21:24:38.980Z,0
2023-03-27T21:26:00.000Z,0
2023-03-27T21:27:21.000Z,0
2023-03-27T21:28:42.284Z,0
2023-03-27T21:30:03.000Z,0
2023-03-27T21:31:24.000Z,0
2023-03-27T21:32:45.000Z,0
2023-03-27T21:34:05.748Z,0
2023-03-27T21:35:27.098Z,0
2023-03-27T21:36:47.942Z,0
2023-03-27T21:38:09.088Z,0
2023-03-27T21:39:30.000Z,0
2023-03-27T21:54:51.000Z,0
2023-03-27T22:10:12.124Z,0
2023-03-27T22:25:33.000Z,0
2023-03-27T22:40:54.071Z,0
2023-03-27T22:56:15.050Z,0
2023-03-27T23:11:36.008Z,0
2023-03-27T23:26:56.978Z,0
2023-03-27T23:42:17.958Z,0
2023-03-27T23:57:37.000Z,0
